sensor_id;sensor_type;location;lat;lon;timestamp;temperature;humidity
21473;DHT22;10898;48.072;11.682;2023-05-21T00:01:53;15.80;99.90
21473;DHT22;10898;48.072;11.682;2023-05-21T00:03:55;15.80;99.90
21473;DHT22;10898;48.072;11.682;2023-05-21T00:05:57;15.70;99.90
21473;DHT22;10898;48.072;11.682;2023-05-21T00:08:02;15.70;99.90
21473;DHT22;10898;48.072;11.682;2023-05-21T00:10:04;15.70;99.90
21473;DHT22;10898;48.072;11.682;2023-05-21T00:12:07;15.70;99.90
21473;DHT22;10898;48.072;11.682;2023-05-21T00:14:09;15.60;99.90
21473;DHT22;10898;48.072;11.682;2023-05-21T00:16:11;15.60;99.90
21473;DHT22;10898;48.072;11.682;2023-05-21T00:18:13;15.60;99.90
21473;DHT22;10898;48.072;11.682;2023-05-21T00:20:15;15.60;99.90
21473;DHT22;10898;48.072;11.682;2023-05-21T00:22:17;15.60;99.90
21473;DHT22;10898;48.072;11.682;2023-05-21T00:24:20;15.60;99.90
21473;DHT22;10898;48.072;11.682;2023-05-21T00:26:22;15.50;99.90
21473;DHT22;10898;48.072;11.682;2023-05-21T00:28:27;15.50;99.90
21473;DHT22;10898;48.072;11.682;2023-05-21T00:30:29;15.50;99.90
21473;DHT22;10898;48.072;11.682;2023-05-21T00:32:31;15.50;99.90
21473;DHT22;10898;48.072;11.682;2023-05-21T00:34:32;15.50;99.90
21473;DHT22;10898;48.072;11.682;2023-05-21T00:36:34;15.50;99.90
21473;DHT22;10898;48.072;11.682;2023-05-21T00:38:36;15.40;99.90
21473;DHT22;10898;48.072;11.682;2023-05-21T00:40:38;15.40;99.90
21473;DHT22;10898;48.072;11.682;2023-05-21T00:42:41;15.40;99.90
21473;DHT22;10898;48.072;11.682;2023-05-21T00:44:47;15.40;99.90
21473;DHT22;10898;48.072;11.682;2023-05-21T00:46:49;15.40;99.90
21473;DHT22;10898;48.072;11.682;2023-05-21T00:48:54;15.30;99.90
21473;DHT22;10898;48.072;11.682;2023-05-21T00:50:58;15.30;99.90
21473;DHT22;10898;48.072;11.682;2023-05-21T00:53:00;15.30;99.90
21473;DHT22;10898;48.072;11.682;2023-05-21T00:55:02;15.30;99.90
21473;DHT22;10898;48.072;11.682;2023-05-21T00:57:05;15.30;99.90
21473;DHT22;10898;48.072;11.682;2023-05-21T00:59:07;15.30;99.90
21473;DHT22;10898;48.072;11.682;2023-05-21T01:01:09;15.20;99.90
21473;DHT22;10898;48.072;11.682;2023-05-21T01:03:14;15.20;99.90
21473;DHT22;10898;48.072;11.682;2023-05-21T01:05:17;15.20;99.90
21473;DHT22;10898;48.072;11.682;2023-05-21T01:07:19;15.20;99.90
21473;DHT22;10898;48.072;11.682;2023-05-21T01:09:22;15.20;99.90
21473;DHT22;10898;48.072;11.682;2023-05-21T01:11:37;15.10;99.90
21473;DHT22;10898;48.072;11.682;2023-05-21T01:13:40;15.10;99.90
21473;DHT22;10898;48.072;11.682;2023-05-21T01:15:43;15.10;99.90
21473;DHT22;10898;48.072;11.682;2023-05-21T01:17:46;15.10;99.90
21473;DHT22;10898;48.072;11.682;2023-05-21T01:19:50;15.10;99.90
21473;DHT22;10898;48.072;11.682;2023-05-21T01:21:59;15.10;99.90
21473;DHT22;10898;48.072;11.682;2023-05-21T01:24:02;15.10;99.90
21473;DHT22;10898;48.072;11.682;2023-05-21T01:26:08;15.00;99.90
21473;DHT22;10898;48.072;11.682;2023-05-21T01:28:13;15.00;99.90
21473;DHT22;10898;48.072;11.682;2023-05-21T01:30:17;15.00;99.90
21473;DHT22;10898;48.072;11.682;2023-05-21T01:32:28;15.00;99.90
21473;DHT22;10898;48.072;11.682;2023-05-21T01:34:39;15.00;99.90
21473;DHT22;10898;48.072;11.682;2023-05-21T01:36:45;14.90;99.90
21473;DHT22;10898;48.072;11.682;2023-05-21T01:41:17;15.00;99.90
21473;DHT22;10898;48.072;11.682;2023-05-21T01:43:20;14.90;99.90
21473;DHT22;10898;48.072;11.682;2023-05-21T01:45:23;14.90;99.90
21473;DHT22;10898;48.072;11.682;2023-05-21T01:47:28;14.90;99.90
21473;DHT22;10898;48.072;11.682;2023-05-21T01:49:32;14.90;99.90
21473;DHT22;10898;48.072;11.682;2023-05-21T01:51:34;14.90;99.90
21473;DHT22;10898;48.072;11.682;2023-05-21T01:53:36;14.90;99.90
21473;DHT22;10898;48.072;11.682;2023-05-21T01:55:41;14.80;99.90
21473;DHT22;10898;48.072;11.682;2023-05-21T01:57:44;14.80;99.90
21473;DHT22;10898;48.072;11.682;2023-05-21T01:59:46;14.80;99.90
21473;DHT22;10898;48.072;11.682;2023-05-21T02:01:48;14.70;99.90
21473;DHT22;10898;48.072;11.682;2023-05-21T02:03:50;14.70;99.90
21473;DHT22;10898;48.072;11.682;2023-05-21T02:05:52;14.70;99.90
21473;DHT22;10898;48.072;11.682;2023-05-21T02:07:57;14.70;99.90
21473;DHT22;10898;48.072;11.682;2023-05-21T02:10:00;14.70;99.90
21473;DHT22;10898;48.072;11.682;2023-05-21T02:12:03;14.60;99.90
21473;DHT22;10898;48.072;11.682;2023-05-21T02:14:04;14.60;99.90
21473;DHT22;10898;48.072;11.682;2023-05-21T02:16:08;14.60;99.90
21473;DHT22;10898;48.072;11.682;2023-05-21T02:18:15;14.60;99.90
21473;DHT22;10898;48.072;11.682;2023-05-21T02:20:18;14.50;99.90
21473;DHT22;10898;48.072;11.682;2023-05-21T02:22:19;14.50;99.90
21473;DHT22;10898;48.072;11.682;2023-05-21T02:24:21;14.50;99.90
21473;DHT22;10898;48.072;11.682;2023-05-21T02:26:24;14.40;99.90
21473;DHT22;10898;48.072;11.682;2023-05-21T02:28:27;14.40;99.90
21473;DHT22;10898;48.072;11.682;2023-05-21T02:30:30;14.40;99.90
21473;DHT22;10898;48.072;11.682;2023-05-21T02:32:32;14.40;99.90
21473;DHT22;10898;48.072;11.682;2023-05-21T02:34:34;14.40;99.90
21473;DHT22;10898;48.072;11.682;2023-05-21T02:36:37;14.40;99.90
21473;DHT22;10898;48.072;11.682;2023-05-21T02:38:42;14.40;99.90
21473;DHT22;10898;48.072;11.682;2023-05-21T02:40:45;14.30;99.90
21473;DHT22;10898;48.072;11.682;2023-05-21T02:42:46;14.30;99.90
21473;DHT22;10898;48.072;11.682;2023-05-21T02:44:49;14.30;99.90
21473;DHT22;10898;48.072;11.682;2023-05-21T02:46:51;14.30;99.90
21473;DHT22;10898;48.072;11.682;2023-05-21T02:48:53;14.30;99.90
21473;DHT22;10898;48.072;11.682;2023-05-21T02:50:55;14.20;99.90
21473;DHT22;10898;48.072;11.682;2023-05-21T02:52:57;14.20;99.90
21473;DHT22;10898;48.072;11.682;2023-05-21T02:55:00;14.20;99.90
21473;DHT22;10898;48.072;11.682;2023-05-21T02:57:02;14.10;99.90
21473;DHT22;10898;48.072;11.682;2023-05-21T02:59:04;14.10;99.90
21473;DHT22;10898;48.072;11.682;2023-05-21T03:01:06;14.10;99.90
21473;DHT22;10898;48.072;11.682;2023-05-21T03:03:07;14.10;99.90
21473;DHT22;10898;48.072;11.682;2023-05-21T03:05:09;14.00;99.90
21473;DHT22;10898;48.072;11.682;2023-05-21T03:07:12;14.10;99.90
21473;DHT22;10898;48.072;11.682;2023-05-21T03:09:15;14.00;99.90
21473;DHT22;10898;48.072;11.682;2023-05-21T03:11:18;14.00;99.90
21473;DHT22;10898;48.072;11.682;2023-05-21T03:13:20;13.90;99.90
21473;DHT22;10898;48.072;11.682;2023-05-21T03:15:22;13.90;99.90
21473;DHT22;10898;48.072;11.682;2023-05-21T03:17:25;13.90;99.90
21473;DHT22;10898;48.072;11.682;2023-05-21T03:19:28;13.90;99.90
21473;DHT22;10898;48.072;11.682;2023-05-21T03:21:32;13.90;99.90
21473;DHT22;10898;48.072;11.682;2023-05-21T03:23:34;13.80;99.90
21473;DHT22;10898;48.072;11.682;2023-05-21T03:25:36;13.80;99.90
21473;DHT22;10898;48.072;11.682;2023-05-21T03:27:38;13.80;99.90
21473;DHT22;10898;48.072;11.682;2023-05-21T03:29:40;13.80;99.90
21473;DHT22;10898;48.072;11.682;2023-05-21T03:31:43;13.70;99.90
21473;DHT22;10898;48.072;11.682;2023-05-21T03:33:45;13.70;99.90
21473;DHT22;10898;48.072;11.682;2023-05-21T03:35:47;13.70;99.90
21473;DHT22;10898;48.072;11.682;2023-05-21T03:37:49;13.70;99.90
21473;DHT22;10898;48.072;11.682;2023-05-21T03:39:51;13.70;99.90
21473;DHT22;10898;48.072;11.682;2023-05-21T03:41:53;13.60;99.90
21473;DHT22;10898;48.072;11.682;2023-05-21T03:43:55;13.60;99.90
21473;DHT22;10898;48.072;11.682;2023-05-21T03:45:57;13.60;99.90
21473;DHT22;10898;48.072;11.682;2023-05-21T03:47:58;13.60;99.90
21473;DHT22;10898;48.072;11.682;2023-05-21T03:50:02;13.60;99.90
21473;DHT22;10898;48.072;11.682;2023-05-21T03:52:06;13.60;99.90
21473;DHT22;10898;48.072;11.682;2023-05-21T03:54:08;13.50;99.90
21473;DHT22;10898;48.072;11.682;2023-05-21T03:56:10;13.50;99.90
21473;DHT22;10898;48.072;11.682;2023-05-21T03:58:12;13.50;99.90
21473;DHT22;10898;48.072;11.682;2023-05-21T04:00:14;13.50;99.90
21473;DHT22;10898;48.072;11.682;2023-05-21T04:02:16;13.40;99.90
21473;DHT22;10898;48.072;11.682;2023-05-21T04:04:18;13.40;99.90
21473;DHT22;10898;48.072;11.682;2023-05-21T04:06:20;13.40;99.90
21473;DHT22;10898;48.072;11.682;2023-05-21T04:08:22;13.40;99.90
21473;DHT22;10898;48.072;11.682;2023-05-21T04:10:25;13.40;99.90
21473;DHT22;10898;48.072;11.682;2023-05-21T04:12:27;13.40;99.90
21473;DHT22;10898;48.072;11.682;2023-05-21T04:14:29;13.40;99.90
21473;DHT22;10898;48.072;11.682;2023-05-21T04:16:31;13.40;99.90
21473;DHT22;10898;48.072;11.682;2023-05-21T04:18:35;13.40;99.90
21473;DHT22;10898;48.072;11.682;2023-05-21T04:20:37;13.40;99.90
21473;DHT22;10898;48.072;11.682;2023-05-21T04:22:39;13.40;99.90
21473;DHT22;10898;48.072;11.682;2023-05-21T04:24:41;13.50;99.90
21473;DHT22;10898;48.072;11.682;2023-05-21T04:26:43;13.50;99.90
21473;DHT22;10898;48.072;11.682;2023-05-21T04:28:45;13.50;99.90
21473;DHT22;10898;48.072;11.682;2023-05-21T04:30:47;13.50;99.90
21473;DHT22;10898;48.072;11.682;2023-05-21T04:32:50;13.50;99.90
21473;DHT22;10898;48.072;11.682;2023-05-21T04:34:53;13.50;99.90
21473;DHT22;10898;48.072;11.682;2023-05-21T04:36:55;13.50;99.90
21473;DHT22;10898;48.072;11.682;2023-05-21T04:38:57;13.60;99.90
21473;DHT22;10898;48.072;11.682;2023-05-21T04:40:59;13.60;99.90
21473;DHT22;10898;48.072;11.682;2023-05-21T04:43:04;13.60;99.90
21473;DHT22;10898;48.072;11.682;2023-05-21T04:45:06;13.60;99.90
21473;DHT22;10898;48.072;11.682;2023-05-21T04:47:09;13.60;99.90
21473;DHT22;10898;48.072;11.682;2023-05-21T04:49:13;13.60;99.90
21473;DHT22;10898;48.072;11.682;2023-05-21T04:51:14;13.70;99.90
21473;DHT22;10898;48.072;11.682;2023-05-21T04:53:16;13.70;99.90
21473;DHT22;10898;48.072;11.682;2023-05-21T04:55:18;13.80;99.90
21473;DHT22;10898;48.072;11.682;2023-05-21T04:57:20;13.80;99.90
21473;DHT22;10898;48.072;11.682;2023-05-21T04:59:22;13.80;99.90
21473;DHT22;10898;48.072;11.682;2023-05-21T05:01:24;13.90;99.90
21473;DHT22;10898;48.072;11.682;2023-05-21T05:03:28;14.00;99.90
21473;DHT22;10898;48.072;11.682;2023-05-21T05:05:30;14.00;99.90
21473;DHT22;10898;48.072;11.682;2023-05-21T05:07:32;14.00;99.90
21473;DHT22;10898;48.072;11.682;2023-05-21T05:09:34;14.10;99.90
21473;DHT22;10898;48.072;11.682;2023-05-21T05:11:36;14.20;99.90
21473;DHT22;10898;48.072;11.682;2023-05-21T05:13:41;14.20;99.90
21473;DHT22;10898;48.072;11.682;2023-05-21T05:15:43;14.30;99.90
21473;DHT22;10898;48.072;11.682;2023-05-21T05:17:44;14.30;99.90
21473;DHT22;10898;48.072;11.682;2023-05-21T05:19:49;14.30;99.90
21473;DHT22;10898;48.072;11.682;2023-05-21T05:21:51;14.40;99.90
21473;DHT22;10898;48.072;11.682;2023-05-21T05:23:53;14.50;99.90
21473;DHT22;10898;48.072;11.682;2023-05-21T05:25:55;14.50;99.90
21473;DHT22;10898;48.072;11.682;2023-05-21T05:27:56;14.60;99.90
21473;DHT22;10898;48.072;11.682;2023-05-21T05:29:58;14.60;99.90
21473;DHT22;10898;48.072;11.682;2023-05-21T05:32:00;14.70;99.90
21473;DHT22;10898;48.072;11.682;2023-05-21T05:34:02;14.70;99.90
21473;DHT22;10898;48.072;11.682;2023-05-21T05:36:04;14.80;99.90
21473;DHT22;10898;48.072;11.682;2023-05-21T05:38:06;14.90;99.90
21473;DHT22;10898;48.072;11.682;2023-05-21T05:40:09;14.90;99.90
21473;DHT22;10898;48.072;11.682;2023-05-21T05:42:11;15.00;99.90
21473;DHT22;10898;48.072;11.682;2023-05-21T05:44:13;15.00;99.90
21473;DHT22;10898;48.072;11.682;2023-05-21T05:46:15;15.10;99.90
21473;DHT22;10898;48.072;11.682;2023-05-21T05:48:17;15.20;99.90
21473;DHT22;10898;48.072;11.682;2023-05-21T05:50:19;15.20;99.90
21473;DHT22;10898;48.072;11.682;2023-05-21T05:52:21;15.30;99.90
21473;DHT22;10898;48.072;11.682;2023-05-21T05:54:23;15.30;99.90
21473;DHT22;10898;48.072;11.682;2023-05-21T05:56:25;15.40;99.90
21473;DHT22;10898;48.072;11.682;2023-05-21T05:58:29;15.50;99.90
21473;DHT22;10898;48.072;11.682;2023-05-21T06:00:31;15.50;99.90
21473;DHT22;10898;48.072;11.682;2023-05-21T06:02:33;15.60;99.90
21473;DHT22;10898;48.072;11.682;2023-05-21T06:04:35;15.70;99.90
21473;DHT22;10898;48.072;11.682;2023-05-21T06:06:37;15.70;99.90
21473;DHT22;10898;48.072;11.682;2023-05-21T06:08:39;15.80;99.90
21473;DHT22;10898;48.072;11.682;2023-05-21T06:10:41;15.90;99.90
21473;DHT22;10898;48.072;11.682;2023-05-21T06:12:43;15.90;99.90
21473;DHT22;10898;48.072;11.682;2023-05-21T06:14:45;16.00;99.90
21473;DHT22;10898;48.072;11.682;2023-05-21T06:16:49;16.10;99.90
21473;DHT22;10898;48.072;11.682;2023-05-21T06:18:51;16.20;99.90
21473;DHT22;10898;48.072;11.682;2023-05-21T06:20:54;16.30;99.90
21473;DHT22;10898;48.072;11.682;2023-05-21T06:22:56;16.40;99.90
21473;DHT22;10898;48.072;11.682;2023-05-21T06:24:58;16.40;99.90
21473;DHT22;10898;48.072;11.682;2023-05-21T06:27:00;16.50;99.90
21473;DHT22;10898;48.072;11.682;2023-05-21T06:29:02;16.60;99.90
21473;DHT22;10898;48.072;11.682;2023-05-21T06:31:04;16.70;99.90
21473;DHT22;10898;48.072;11.682;2023-05-21T06:33:06;16.70;99.90
21473;DHT22;10898;48.072;11.682;2023-05-21T06:35:08;16.80;99.90
21473;DHT22;10898;48.072;11.682;2023-05-21T06:37:10;16.90;99.90
21473;DHT22;10898;48.072;11.682;2023-05-21T06:39:12;17.00;99.90
21473;DHT22;10898;48.072;11.682;2023-05-21T06:41:14;17.00;99.90
21473;DHT22;10898;48.072;11.682;2023-05-21T06:43:16;17.20;99.90
21473;DHT22;10898;48.072;11.682;2023-05-21T06:45:19;17.10;99.90
21473;DHT22;10898;48.072;11.682;2023-05-21T06:47:21;17.20;99.90
21473;DHT22;10898;48.072;11.682;2023-05-21T06:49:23;17.30;99.90
21473;DHT22;10898;48.072;11.682;2023-05-21T06:51:25;17.30;99.90
21473;DHT22;10898;48.072;11.682;2023-05-21T06:53:27;17.40;99.90
21473;DHT22;10898;48.072;11.682;2023-05-21T06:55:28;17.50;99.90
21473;DHT22;10898;48.072;11.682;2023-05-21T06:57:30;17.50;99.90
21473;DHT22;10898;48.072;11.682;2023-05-21T06:59:32;17.50;99.90
21473;DHT22;10898;48.072;11.682;2023-05-21T07:01:34;17.60;99.90
21473;DHT22;10898;48.072;11.682;2023-05-21T07:03:36;17.60;99.90
21473;DHT22;10898;48.072;11.682;2023-05-21T07:05:38;17.70;99.90
21473;DHT22;10898;48.072;11.682;2023-05-21T07:07:40;17.70;99.90
21473;DHT22;10898;48.072;11.682;2023-05-21T07:09:42;17.70;99.90
21473;DHT22;10898;48.072;11.682;2023-05-21T07:11:44;17.80;99.90
21473;DHT22;10898;48.072;11.682;2023-05-21T07:13:46;17.80;99.90
21473;DHT22;10898;48.072;11.682;2023-05-21T07:15:48;17.90;99.90
21473;DHT22;10898;48.072;11.682;2023-05-21T07:17:50;17.90;99.90
21473;DHT22;10898;48.072;11.682;2023-05-21T07:19:51;18.00;99.90
21473;DHT22;10898;48.072;11.682;2023-05-21T07:21:53;18.00;99.90
21473;DHT22;10898;48.072;11.682;2023-05-21T07:23:57;18.00;99.90
21473;DHT22;10898;48.072;11.682;2023-05-21T07:25:59;18.10;99.90
21473;DHT22;10898;48.072;11.682;2023-05-21T07:28:01;18.10;99.90
21473;DHT22;10898;48.072;11.682;2023-05-21T07:30:05;18.10;99.90
21473;DHT22;10898;48.072;11.682;2023-05-21T07:32:07;18.10;99.90
21473;DHT22;10898;48.072;11.682;2023-05-21T07:34:09;18.20;99.90
21473;DHT22;10898;48.072;11.682;2023-05-21T07:36:11;18.20;99.90
21473;DHT22;10898;48.072;11.682;2023-05-21T07:38:13;18.20;99.90
21473;DHT22;10898;48.072;11.682;2023-05-21T07:40:15;18.20;99.90
21473;DHT22;10898;48.072;11.682;2023-05-21T07:42:17;18.30;99.90
21473;DHT22;10898;48.072;11.682;2023-05-21T07:44:18;18.30;99.90
21473;DHT22;10898;48.072;11.682;2023-05-21T07:46:20;18.30;99.90
21473;DHT22;10898;48.072;11.682;2023-05-21T07:48:22;18.30;99.90
21473;DHT22;10898;48.072;11.682;2023-05-21T07:50:24;18.30;99.90
21473;DHT22;10898;48.072;11.682;2023-05-21T07:52:26;18.40;99.90
21473;DHT22;10898;48.072;11.682;2023-05-21T07:54:28;18.40;99.90
21473;DHT22;10898;48.072;11.682;2023-05-21T07:56:30;18.50;99.90
21473;DHT22;10898;48.072;11.682;2023-05-21T07:58:33;18.50;99.90
21473;DHT22;10898;48.072;11.682;2023-05-21T08:00:42;18.50;99.90
21473;DHT22;10898;48.072;11.682;2023-05-21T08:02:45;18.60;99.90
21473;DHT22;10898;48.072;11.682;2023-05-21T08:04:47;18.70;99.90
21473;DHT22;10898;48.072;11.682;2023-05-21T08:06:50;18.70;99.90
21473;DHT22;10898;48.072;11.682;2023-05-21T08:08:52;18.70;99.90
21473;DHT22;10898;48.072;11.682;2023-05-21T08:10:55;18.70;99.90
21473;DHT22;10898;48.072;11.682;2023-05-21T08:12:56;18.80;99.90
21473;DHT22;10898;48.072;11.682;2023-05-21T08:14:58;18.80;99.90
21473;DHT22;10898;48.072;11.682;2023-05-21T08:17:01;18.80;99.90
21473;DHT22;10898;48.072;11.682;2023-05-21T08:19:03;18.90;99.90
21473;DHT22;10898;48.072;11.682;2023-05-21T08:21:05;18.90;99.90
21473;DHT22;10898;48.072;11.682;2023-05-21T08:23:07;19.00;99.90
21473;DHT22;10898;48.072;11.682;2023-05-21T08:25:09;19.10;99.90
21473;DHT22;10898;48.072;11.682;2023-05-21T08:27:10;19.10;99.90
21473;DHT22;10898;48.072;11.682;2023-05-21T08:29:12;19.20;99.90
21473;DHT22;10898;48.072;11.682;2023-05-21T08:31:17;19.20;99.90
21473;DHT22;10898;48.072;11.682;2023-05-21T08:33:19;19.30;99.90
21473;DHT22;10898;48.072;11.682;2023-05-21T08:35:22;19.40;99.90
21473;DHT22;10898;48.072;11.682;2023-05-21T08:37:24;19.50;99.90
21473;DHT22;10898;48.072;11.682;2023-05-21T08:39:25;19.60;99.90
21473;DHT22;10898;48.072;11.682;2023-05-21T08:41:30;19.60;99.90
21473;DHT22;10898;48.072;11.682;2023-05-21T08:43:36;19.70;99.90
21473;DHT22;10898;48.072;11.682;2023-05-21T08:45:41;19.80;99.90
21473;DHT22;10898;48.072;11.682;2023-05-21T08:47:45;19.90;99.90
21473;DHT22;10898;48.072;11.682;2023-05-21T08:49:50;20.00;99.90
21473;DHT22;10898;48.072;11.682;2023-05-21T08:51:52;20.10;99.90
21473;DHT22;10898;48.072;11.682;2023-05-21T08:53:56;20.20;99.90
21473;DHT22;10898;48.072;11.682;2023-05-21T08:55:58;20.20;99.90
21473;DHT22;10898;48.072;11.682;2023-05-21T08:58:03;20.40;99.90
21473;DHT22;10898;48.072;11.682;2023-05-21T09:00:06;20.40;99.90
21473;DHT22;10898;48.072;11.682;2023-05-21T09:02:10;20.50;99.90
21473;DHT22;10898;48.072;11.682;2023-05-21T09:04:14;20.60;99.90
21473;DHT22;10898;48.072;11.682;2023-05-21T09:06:22;20.70;99.90
21473;DHT22;10898;48.072;11.682;2023-05-21T09:08:29;20.80;99.90
21473;DHT22;10898;48.072;11.682;2023-05-21T09:10:37;20.90;99.90
21473;DHT22;10898;48.072;11.682;2023-05-21T09:12:39;21.00;99.90
21473;DHT22;10898;48.072;11.682;2023-05-21T09:14:42;21.10;99.90
21473;DHT22;10898;48.072;11.682;2023-05-21T09:16:45;21.20;99.90
21473;DHT22;10898;48.072;11.682;2023-05-21T09:18:49;21.40;99.90
21473;DHT22;10898;48.072;11.682;2023-05-21T09:20:51;21.60;99.00
21473;DHT22;10898;48.072;11.682;2023-05-21T09:22:54;21.80;99.40
21473;DHT22;10898;48.072;11.682;2023-05-21T09:24:56;22.00;99.10
21473;DHT22;10898;48.072;11.682;2023-05-21T09:26:58;22.20;97.70
21473;DHT22;10898;48.072;11.682;2023-05-21T09:29:00;22.40;95.80
21473;DHT22;10898;48.072;11.682;2023-05-21T09:31:02;22.60;92.70
21473;DHT22;10898;48.072;11.682;2023-05-21T09:33:04;22.80;92.30
21473;DHT22;10898;48.072;11.682;2023-05-21T09:35:08;22.90;91.80
21473;DHT22;10898;48.072;11.682;2023-05-21T09:37:10;23.00;90.40
21473;DHT22;10898;48.072;11.682;2023-05-21T09:39:27;23.20;89.00
21473;DHT22;10898;48.072;11.682;2023-05-21T09:41:33;23.30;89.70
21473;DHT22;10898;48.072;11.682;2023-05-21T09:43:36;23.50;87.70
21473;DHT22;10898;48.072;11.682;2023-05-21T09:45:53;23.60;87.00
21473;DHT22;10898;48.072;11.682;2023-05-21T09:47:55;23.70;84.30
21473;DHT22;10898;48.072;11.682;2023-05-21T09:49:57;23.90;83.90
21473;DHT22;10898;48.072;11.682;2023-05-21T09:51:59;23.90;84.50
21473;DHT22;10898;48.072;11.682;2023-05-21T09:54:02;24.00;83.30
21473;DHT22;10898;48.072;11.682;2023-05-21T09:56:04;24.10;82.30
21473;DHT22;10898;48.072;11.682;2023-05-21T09:58:05;24.10;80.50
21473;DHT22;10898;48.072;11.682;2023-05-21T10:00:09;24.10;82.10
21473;DHT22;10898;48.072;11.682;2023-05-21T10:02:22;24.10;80.70
21473;DHT22;10898;48.072;11.682;2023-05-21T10:04:24;24.20;80.10
21473;DHT22;10898;48.072;11.682;2023-05-21T10:06:28;24.20;80.90
21473;DHT22;10898;48.072;11.682;2023-05-21T10:08:35;24.20;79.10
21473;DHT22;10898;48.072;11.682;2023-05-21T10:10:42;24.20;81.50
21473;DHT22;10898;48.072;11.682;2023-05-21T10:12:53;24.30;79.40
21473;DHT22;10898;48.072;11.682;2023-05-21T10:15:08;24.30;78.80
21473;DHT22;10898;48.072;11.682;2023-05-21T10:17:11;24.40;78.80
21473;DHT22;10898;48.072;11.682;2023-05-21T10:19:14;24.40;81.70
21473;DHT22;10898;48.072;11.682;2023-05-21T10:21:16;24.40;81.50
21473;DHT22;10898;48.072;11.682;2023-05-21T10:23:19;24.50;81.10
21473;DHT22;10898;48.072;11.682;2023-05-21T10:25:21;24.50;80.00
21473;DHT22;10898;48.072;11.682;2023-05-21T10:27:23;24.50;77.60
21473;DHT22;10898;48.072;11.682;2023-05-21T10:29:25;24.50;79.80
21473;DHT22;10898;48.072;11.682;2023-05-21T10:31:28;24.60;80.30
21473;DHT22;10898;48.072;11.682;2023-05-21T10:33:30;24.60;80.00
21473;DHT22;10898;48.072;11.682;2023-05-21T10:35:32;24.70;79.70
21473;DHT22;10898;48.072;11.682;2023-05-21T10:37:35;24.70;80.60
21473;DHT22;10898;48.072;11.682;2023-05-21T10:39:37;24.70;76.60
21473;DHT22;10898;48.072;11.682;2023-05-21T10:41:50;24.80;80.50
21473;DHT22;10898;48.072;11.682;2023-05-21T10:46:47;24.90;75.30
21473;DHT22;10898;48.072;11.682;2023-05-21T10:54:19;25.00;74.20
21473;DHT22;10898;48.072;11.682;2023-05-21T10:56:43;25.10;74.70
21473;DHT22;10898;48.072;11.682;2023-05-21T11:01:27;25.20;68.00
21473;DHT22;10898;48.072;11.682;2023-05-21T11:03:30;25.30;70.50
21473;DHT22;10898;48.072;11.682;2023-05-21T11:05:55;25.40;71.50
21473;DHT22;10898;48.072;11.682;2023-05-21T11:07:57;25.60;69.20
21473;DHT22;10898;48.072;11.682;2023-05-21T11:13:13;25.80;67.90
21473;DHT22;10898;48.072;11.682;2023-05-21T11:15:15;25.90;67.60
21473;DHT22;10898;48.072;11.682;2023-05-21T11:17:38;25.80;67.10
21473;DHT22;10898;48.072;11.682;2023-05-21T11:19:44;26.00;65.60
21473;DHT22;10898;48.072;11.682;2023-05-21T11:21:54;26.00;65.40
21473;DHT22;10898;48.072;11.682;2023-05-21T11:23:59;26.00;63.50
21473;DHT22;10898;48.072;11.682;2023-05-21T11:26:05;26.00;62.80
21473;DHT22;10898;48.072;11.682;2023-05-21T11:28:07;26.10;64.30
21473;DHT22;10898;48.072;11.682;2023-05-21T11:30:16;26.30;63.10
21473;DHT22;10898;48.072;11.682;2023-05-21T11:32:18;26.30;58.30
21473;DHT22;10898;48.072;11.682;2023-05-21T11:34:22;26.40;62.70
21473;DHT22;10898;48.072;11.682;2023-05-21T11:36:29;26.40;62.80
21473;DHT22;10898;48.072;11.682;2023-05-21T11:38:31;26.50;61.90
21473;DHT22;10898;48.072;11.682;2023-05-21T11:40:34;26.60;64.20
21473;DHT22;10898;48.072;11.682;2023-05-21T11:42:39;26.70;64.10
21473;DHT22;10898;48.072;11.682;2023-05-21T11:44:47;26.80;65.60
21473;DHT22;10898;48.072;11.682;2023-05-21T11:46:50;26.90;62.90
21473;DHT22;10898;48.072;11.682;2023-05-21T11:48:54;26.90;63.50
21473;DHT22;10898;48.072;11.682;2023-05-21T11:50:56;27.00;61.80
21473;DHT22;10898;48.072;11.682;2023-05-21T11:52:58;27.00;62.60
21473;DHT22;10898;48.072;11.682;2023-05-21T11:55:00;27.00;60.40
21473;DHT22;10898;48.072;11.682;2023-05-21T11:57:05;27.00;58.40
21473;DHT22;10898;48.072;11.682;2023-05-21T11:59:13;27.00;60.30
21473;DHT22;10898;48.072;11.682;2023-05-21T12:01:25;27.10;60.60
21473;DHT22;10898;48.072;11.682;2023-05-21T12:03:27;27.20;61.80
21473;DHT22;10898;48.072;11.682;2023-05-21T12:05:43;27.20;60.50
21473;DHT22;10898;48.072;11.682;2023-05-21T12:07:46;27.30;57.90
21473;DHT22;10898;48.072;11.682;2023-05-21T12:09:51;27.30;61.80
21473;DHT22;10898;48.072;11.682;2023-05-21T12:11:53;27.30;60.60
21473;DHT22;10898;48.072;11.682;2023-05-21T12:13:56;27.30;60.40
21473;DHT22;10898;48.072;11.682;2023-05-21T12:15:57;27.40;60.10
21473;DHT22;10898;48.072;11.682;2023-05-21T12:17:59;27.40;59.80
21473;DHT22;10898;48.072;11.682;2023-05-21T12:20:02;27.50;59.40
21473;DHT22;10898;48.072;11.682;2023-05-21T12:22:08;27.50;57.60
21473;DHT22;10898;48.072;11.682;2023-05-21T12:24:10;27.50;59.30
21473;DHT22;10898;48.072;11.682;2023-05-21T12:26:12;27.60;57.70
21473;DHT22;10898;48.072;11.682;2023-05-21T12:28:15;27.70;58.00
21473;DHT22;10898;48.072;11.682;2023-05-21T12:30:17;27.70;57.20
21473;DHT22;10898;48.072;11.682;2023-05-21T12:32:20;27.80;56.90
21473;DHT22;10898;48.072;11.682;2023-05-21T12:34:42;27.80;58.50
21473;DHT22;10898;48.072;11.682;2023-05-21T12:36:45;27.90;57.40
21473;DHT22;10898;48.072;11.682;2023-05-21T12:38:49;27.90;56.50
21473;DHT22;10898;48.072;11.682;2023-05-21T12:40:51;27.90;58.80
21473;DHT22;10898;48.072;11.682;2023-05-21T12:42:53;27.90;58.80
21473;DHT22;10898;48.072;11.682;2023-05-21T12:44:55;28.00;57.10
21473;DHT22;10898;48.072;11.682;2023-05-21T12:46:57;28.00;56.80
21473;DHT22;10898;48.072;11.682;2023-05-21T12:49:00;28.10;54.00
21473;DHT22;10898;48.072;11.682;2023-05-21T12:51:02;28.10;53.00
21473;DHT22;10898;48.072;11.682;2023-05-21T12:53:07;28.10;55.40
21473;DHT22;10898;48.072;11.682;2023-05-21T12:55:12;28.20;55.00
21473;DHT22;10898;48.072;11.682;2023-05-21T12:57:15;28.30;53.90
21473;DHT22;10898;48.072;11.682;2023-05-21T12:59:18;28.40;54.90
21473;DHT22;10898;48.072;11.682;2023-05-21T13:01:20;28.40;54.60
21473;DHT22;10898;48.072;11.682;2023-05-21T13:03:22;28.40;54.80